createdAt,value
2023-03-04T00:02:16.957Z,73.30
2023-03-04T00:04:43.865Z,73.29
2023-03-04T00:07:10.624Z,73.34
2023-03-04T00:09:37.477Z,73.96
2023-03-04T00:12:04.327Z,72.76
2023-03-04T00:14:31.201Z,71.01
2023-03-04T00:16:57.905Z,69.50
2023-03-04T00:19:24.761Z,69.75
2023-03-04T00:21:51.397Z,70.15
2023-03-04T00:24:18.269Z,69.64
2023-03-04T00:26:44.925Z,70.09
2023-03-04T00:29:11.803Z,69.78
2023-03-04T00:31:38.526Z,69.46
2023-03-04T00:34:05.440Z,67.79
2023-03-04T00:36:32.103Z,68.42
2023-03-04T00:38:58.953Z,67.87
2023-03-04T00:41:25.651Z,68.06
2023-03-04T00:43:52.576Z,69.70
2023-03-04T00:46:19.449Z,70.84
2023-03-04T00:48:46.136Z,69.43
2023-03-04T00:51:12.978Z,69.45
2023-03-04T00:53:39.651Z,69.30
2023-03-04T00:56:07.105Z,69.51
2023-03-04T00:58:33.952Z,67.98
2023-03-04T01:01:00.634Z,66.88
2023-03-04T01:03:31.511Z,66.75
2023-03-04T01:05:58.793Z,67.05
2023-03-04T01:08:26.767Z,66.56
2023-03-04T01:10:53.655Z,65.25
2023-03-04T01:13:20.314Z,66.11
2023-03-04T01:15:47.186Z,67.05
2023-03-04T01:18:14.153Z,66.44
2023-03-04T01:20:41.016Z,66.16
2023-03-04T01:23:07.895Z,67.14
2023-03-04T01:25:34.615Z,66.10
2023-03-04T01:28:01.508Z,65.02
2023-03-04T01:30:28.181Z,65.02
2023-03-04T01:32:55.053Z,64.90
2023-03-04T01:35:21.714Z,64.54
2023-03-04T01:37:48.616Z,64.40
2023-03-04T01:40:15.345Z,64.89
2023-03-04T01:42:42.294Z,64.91
2023-03-04T01:45:13.383Z,65.96
2023-03-04T01:47:40.659Z,67.00
2023-03-04T01:50:12.252Z,66.29
2023-03-04T01:52:39.848Z,66.47
2023-03-04T01:55:15.594Z,66.16
2023-03-04T01:57:43.487Z,66.69
2023-03-04T02:00:26.176Z,66.78
2023-03-04T02:02:55.858Z,67.55
2023-03-04T02:05:23.181Z,68.52
2023-03-04T02:07:50.815Z,70.54
2023-03-04T02:10:18.004Z,69.21
2023-03-04T02:12:45.445Z,68.68
2023-03-04T02:15:12.717Z,67.78
2023-03-04T02:17:39.921Z,68.51
2023-03-04T02:20:43.795Z,69.12
2023-03-04T02:23:16.460Z,70.32
2023-03-04T02:25:51.194Z,70.71
2023-03-04T02:28:18.131Z,71.93
2023-03-04T02:30:44.821Z,72.29
2023-03-04T02:33:17.424Z,72.57
2023-03-04T02:35:44.611Z,72.30
2023-03-04T02:38:12.437Z,72.48
2023-03-04T02:40:40.771Z,74.19
2023-03-04T02:43:10.729Z,76.50
2023-03-04T02:45:47.738Z,76.07
2023-03-04T02:48:18.869Z,76.93
2023-03-04T02:50:48.475Z,75.95
2023-03-04T02:53:15.728Z,75.93
2023-03-04T02:55:43.808Z,74.83
2023-03-04T02:58:11.171Z,74.62
2023-03-04T03:00:38.196Z,75.03
2023-03-04T03:03:05.684Z,75.82
2023-03-04T03:05:34.338Z,77.88
2023-03-04T03:08:02.271Z,77.35
2023-03-04T03:10:29.233Z,77.31
2023-03-04T03:12:56.429Z,76.16
2023-03-04T03:15:23.449Z,76.27
2023-03-04T03:17:50.380Z,75.97
2023-03-04T03:20:17.663Z,76.05
2023-03-04T03:22:44.656Z,76.20
2023-03-04T03:25:12.935Z,75.75
2023-03-04T03:27:39.919Z,74.55
2023-03-04T03:30:08.306Z,74.51
2023-03-04T03:32:35.202Z,74.87
2023-03-04T03:35:02.359Z,72.48
2023-03-04T03:37:29.231Z,75.20
2023-03-04T03:39:55.948Z,72.59
2023-03-04T03:42:22.870Z,71.40
2023-03-04T03:44:50.452Z,70.58
2023-03-04T03:47:17.406Z,72.85
2023-03-04T03:49:44.305Z,72.26
2023-03-04T03:52:11.486Z,70.52
2023-03-04T03:54:38.361Z,70.96
2023-03-04T03:57:05.296Z,72.19
2023-03-04T03:59:32.390Z,71.39
2023-03-04T04:01:59.362Z,70.39
2023-03-04T04:04:26.351Z,71.73
2023-03-04T04:06:53.057Z,72.93
2023-03-04T04:09:20.990Z,72.36
2023-03-04T04:11:47.882Z,71.94
2023-03-04T04:14:14.763Z,71.86
2023-03-04T04:16:41.678Z,73.43
2023-03-04T04:19:08.388Z,71.11
2023-03-04T04:21:35.232Z,71.90
2023-03-04T04:24:01.922Z,71.46
2023-03-04T04:26:28.782Z,73.62
2023-03-04T04:28:55.470Z,70.44
2023-03-04T04:31:22.371Z,68.36
2023-03-04T04:33:49.072Z,70.04
2023-03-04T04:36:16.664Z,68.25
2023-03-04T04:38:43.885Z,69.41
2023-03-04T04:41:20.651Z,67.71
2023-03-04T04:43:47.918Z,67.29
2023-03-04T04:46:15.940Z,67.00
2023-03-04T04:48:44.976Z,63.92
2023-03-04T04:51:12.157Z,65.68
2023-03-04T04:53:39.287Z,63.97
2023-03-04T04:56:17.779Z,61.95
2023-03-04T04:58:44.940Z,62.66
2023-03-04T05:01:12.273Z,62.41
2023-03-04T05:03:39.963Z,62.06
2023-03-04T05:06:08.514Z,62.00
2023-03-04T05:08:35.945Z,60.67
2023-03-04T05:11:04.818Z,60.41
2023-03-04T05:13:32.163Z,62.22
2023-03-04T05:15:59.475Z,59.58
2023-03-04T05:18:27.809Z,57.27
2023-03-04T05:20:56.348Z,59.89
2023-03-04T05:23:24.217Z,59.59
2023-03-04T05:25:51.402Z,58.78
2023-03-04T05:28:18.672Z,60.22
2023-03-04T05:30:46.063Z,58.68
2023-03-04T05:33:14.841Z,58.08
2023-03-04T05:35:42.733Z,61.04
2023-03-04T05:38:11.419Z,60.16
2023-03-04T05:40:39.103Z,61.37
2023-03-04T05:43:06.033Z,61.46
2023-03-04T05:45:32.964Z,59.30
2023-03-04T05:47:59.849Z,61.23
2023-03-04T05:50:27.035Z,62.28
2023-03-04T05:52:53.950Z,62.39
2023-03-04T05:55:20.910Z,63.92
2023-03-04T05:57:48.102Z,64.67
2023-03-04T06:00:17.261Z,65.37
2023-03-04T06:02:44.704Z,62.46
2023-03-04T06:05:13.465Z,62.48
2023-03-04T06:07:40.402Z,62.04
2023-03-04T06:10:07.871Z,59.69
2023-03-04T06:12:34.723Z,59.23
2023-03-04T06:15:02.958Z,58.64
2023-03-04T06:17:30.546Z,57.76
2023-03-04T06:19:57.415Z,56.86
2023-03-04T06:22:24.308Z,56.00
2023-03-04T06:24:51.150Z,55.97
2023-03-04T06:27:17.896Z,55.82
2023-03-04T06:29:44.848Z,54.55
2023-03-04T06:32:11.774Z,53.89
2023-03-04T06:34:38.687Z,53.44
2023-03-04T06:37:05.562Z,52.27
2023-03-04T06:39:33.049Z,50.76
2023-03-04T06:41:59.968Z,49.00
2023-03-04T06:44:26.861Z,49.69
2023-03-04T06:46:53.803Z,48.59
2023-03-04T06:49:20.767Z,47.66
2023-03-04T06:51:47.622Z,48.74
2023-03-04T06:54:14.462Z,46.91
2023-03-04T06:56:41.125Z,46.38
2023-03-04T06:59:07.997Z,44.88
2023-03-04T07:01:35.345Z,43.86
2023-03-04T07:04:02.875Z,43.29
2023-03-04T07:06:30.073Z,42.25
2023-03-04T07:08:58.139Z,41.50
2023-03-04T07:11:25.721Z,41.04
2023-03-04T07:13:52.827Z,42.01
2023-03-04T07:16:21.979Z,41.82
2023-03-04T07:18:49.398Z,41.84
2023-03-04T07:21:17.035Z,41.89
2023-03-04T07:23:43.962Z,39.84
2023-03-04T07:26:11.120Z,38.30
2023-03-04T07:28:38.135Z,39.18
2023-03-04T07:31:20.072Z,38.81
2023-03-04T07:33:46.976Z,38.04
2023-03-04T07:36:15.092Z,35.87
2023-03-04T07:38:48.796Z,35.66
2023-03-04T07:41:16.370Z,36.09
2023-03-04T07:43:43.588Z,37.00
2023-03-04T07:46:11.145Z,36.59
2023-03-04T07:48:38.458Z,36.47
2023-03-04T07:51:10.879Z,39.43
2023-03-04T07:53:39.175Z,39.40
2023-03-04T07:56:07.410Z,40.21
2023-03-04T07:58:34.394Z,41.51
2023-03-04T08:01:01.248Z,42.38
2023-03-04T08:03:29.851Z,43.92
2023-03-04T08:05:56.891Z,44.31
2023-03-04T08:08:23.751Z,42.87
2023-03-04T08:10:50.681Z,44.01
2023-03-04T08:13:17.581Z,44.41
2023-03-04T08:15:44.464Z,46.81
2023-03-04T08:18:11.445Z,47.28
2023-03-04T08:20:38.388Z,46.37
2023-03-04T08:23:05.335Z,45.65
2023-03-04T08:25:32.211Z,47.12
2023-03-04T08:27:59.805Z,46.06
2023-03-04T08:30:26.715Z,46.94
2023-03-04T08:32:53.726Z,47.04
2023-03-04T08:35:20.736Z,46.93
2023-03-04T08:37:47.654Z,44.76
2023-03-04T08:40:14.800Z,44.71
2023-03-04T08:42:41.981Z,43.06
2023-03-04T08:45:10.014Z,42.47
2023-03-04T08:47:37.172Z,44.69
2023-03-04T08:50:05.517Z,45.46
2023-03-04T08:52:32.502Z,45.21
2023-03-04T08:54:59.580Z,47.32
2023-03-04T08:57:26.515Z,46.20
2023-03-04T08:59:53.380Z,46.80
2023-03-04T09:02:20.358Z,45.68
2023-03-04T09:04:47.238Z,44.60
2023-03-04T09:07:14.489Z,46.56
2023-03-04T09:09:41.553Z,46.42
2023-03-04T09:12:08.652Z,45.72
2023-03-04T09:14:36.104Z,45.49
2023-03-04T09:17:04.144Z,46.64
2023-03-04T09:19:31.075Z,45.07
2023-03-04T09:21:59.565Z,44.28
2023-03-04T09:24:27.040Z,44.22
2023-03-04T09:26:54.406Z,44.88
2023-03-04T09:29:22.262Z,45.69
2023-03-04T09:31:49.151Z,45.26
2023-03-04T09:34:16.099Z,45.61
2023-03-04T09:36:43.029Z,45.22
2023-03-04T09:39:09.994Z,44.81
2023-03-04T09:41:42.729Z,43.88
2023-03-04T09:44:27.459Z,44.75
2023-03-04T09:46:58.572Z,42.86
2023-03-04T09:49:26.113Z,42.56
2023-03-04T09:52:15.305Z,42.16
2023-03-04T09:55:17.673Z,41.73
2023-03-04T09:57:53.155Z,42.32
2023-03-04T10:00:24.485Z,42.71
2023-03-04T10:03:06.884Z,41.84
2023-03-04T10:05:56.524Z,42.26
2023-03-04T10:08:41.874Z,40.80
2023-03-04T10:11:24.041Z,42.28
2023-03-04T10:14:23.329Z,42.70
2023-03-04T10:16:54.412Z,41.79
2023-03-04T10:19:52.514Z,41.43
2023-03-04T10:22:33.262Z,40.74
2023-03-04T10:25:22.332Z,39.38
2023-03-04T10:28:09.617Z,39.72
2023-03-04T10:30:51.561Z,39.93
2023-03-04T10:33:21.169Z,41.28
2023-03-04T10:36:07.053Z,41.53
2023-03-04T10:38:39.518Z,40.58
2023-03-04T10:41:21.216Z,41.51
2023-03-04T10:44:02.276Z,40.98
2023-03-04T10:46:30.206Z,41.37
2023-03-04T10:48:58.115Z,42.38
2023-03-04T10:51:27.853Z,42.05
2023-03-04T10:54:00.129Z,40.86
2023-03-04T10:56:45.647Z,39.74
2023-03-04T10:59:31.747Z,40.20
2023-03-04T11:02:00.113Z,39.70
2023-03-04T11:04:32.264Z,41.28
2023-03-04T11:06:59.149Z,40.83
2023-03-04T11:09:29.134Z,41.97
2023-03-04T11:11:59.668Z,41.60
2023-03-04T11:14:40.543Z,40.66
2023-03-04T11:17:50.426Z,41.80
2023-03-04T11:20:29.451Z,41.66
2023-03-04T11:22:58.169Z,41.48
2023-03-04T11:25:28.249Z,41.03
2023-03-04T11:28:01.135Z,42.20
2023-03-04T11:31:07.805Z,43.36
2023-03-04T11:33:56.179Z,41.90
2023-03-04T11:36:41.310Z,41.38
2023-03-04T11:39:20.438Z,40.75
2023-03-04T11:41:53.374Z,41.25
2023-03-04T11:44:20.313Z,41.94
2023-03-04T11:47:06.400Z,41.68
2023-03-04T11:50:02.284Z,41.42
2023-03-04T11:52:38.416Z,40.47
2023-03-04T11:55:08.512Z,39.57
2023-03-04T11:58:16.552Z,40.55
2023-03-04T12:01:04.893Z,40.22
2023-03-04T12:03:41.495Z,40.14
2023-03-04T12:06:36.049Z,41.12
2023-03-04T12:09:37.132Z,41.05
2023-03-04T12:12:38.055Z,39.97
2023-03-04T12:15:17.242Z,39.42
2023-03-04T12:17:56.598Z,39.25
2023-03-04T12:20:58.928Z,39.29
2023-03-04T12:23:36.559Z,39.74
2023-03-04T12:26:25.184Z,40.48
2023-03-04T12:28:55.054Z,39.30
2023-03-04T12:31:35.090Z,41.60
2023-03-04T12:34:32.590Z,41.54
2023-03-04T12:37:26.354Z,40.39
2023-03-04T12:40:08.266Z,40.41
2023-03-04T12:42:35.050Z,40.24
2023-03-04T12:45:01.692Z,40.67
2023-03-04T12:47:47.831Z,40.06
2023-03-04T12:50:31.766Z,41.02
2023-03-04T12:53:14.723Z,39.67
2023-03-04T12:55:45.078Z,39.79
2023-03-04T12:58:25.091Z,40.89
2023-03-04T13:00:57.674Z,41.81
2023-03-04T13:03:38.185Z,43.00
2023-03-04T13:06:31.634Z,44.05
2023-03-04T13:09:04.356Z,42.39
2023-03-04T13:11:33.923Z,41.95
2023-03-04T13:14:06.543Z,42.51
2023-03-04T13:16:43.892Z,41.74
2023-03-04T13:19:29.320Z,42.17
2023-03-04T13:21:56.557Z,41.26
2023-03-04T13:24:46.454Z,41.17
2023-03-04T13:27:48.819Z,41.27
2023-03-04T13:30:34.663Z,41.23
2023-03-04T13:33:16.403Z,41.43
2023-03-04T13:36:02.094Z,42.45
2023-03-04T13:38:31.009Z,40.90
2023-03-04T13:41:17.349Z,41.67
2023-03-04T13:43:45.970Z,41.67
2023-03-04T13:46:18.985Z,42.09
2023-03-04T13:48:51.825Z,40.79
2023-03-04T13:51:31.882Z,40.01
2023-03-04T13:53:58.696Z,40.33
2023-03-04T13:56:38.530Z,39.57
2023-03-04T13:59:08.472Z,40.56
2023-03-04T14:01:41.318Z,41.04
2023-03-04T14:04:18.008Z,40.49
2023-03-04T14:06:48.873Z,41.60
2023-03-04T14:09:27.712Z,41.07
2023-03-04T14:11:57.368Z,42.21
2023-03-04T14:14:30.236Z,41.60
2023-03-04T14:17:00.601Z,41.71
2023-03-04T14:19:33.618Z,41.69
2023-03-04T14:22:01.266Z,40.94
2023-03-04T14:24:30.895Z,41.07
2023-03-04T14:27:14.416Z,41.13
2023-03-04T14:29:41.300Z,40.84
2023-03-04T14:32:08.765Z,41.10
2023-03-04T14:34:38.446Z,41.19
2023-03-04T14:37:20.268Z,40.38
2023-03-04T14:39:50.507Z,41.52
2023-03-04T14:42:18.989Z,39.96
2023-03-04T14:44:50.214Z,41.39
2023-03-04T14:47:22.256Z,39.47
2023-03-04T14:49:49.616Z,40.08
2023-03-04T14:52:39.230Z,39.80
2023-03-04T14:55:15.174Z,39.17
2023-03-04T14:57:44.363Z,39.62
2023-03-04T15:00:20.537Z,37.56
2023-03-04T15:02:52.872Z,36.96
2023-03-04T15:05:31.913Z,37.82
2023-03-04T15:08:02.347Z,37.31
2023-03-04T15:10:35.008Z,36.87
2023-03-04T15:13:05.138Z,36.44
2023-03-04T15:15:40.093Z,35.95
2023-03-04T15:18:27.393Z,35.71
2023-03-04T15:21:15.529Z,35.89
2023-03-04T15:23:42.395Z,36.37
2023-03-04T15:26:10.729Z,35.62
2023-03-04T15:28:38.730Z,35.65
2023-03-04T15:31:06.250Z,36.01
2023-03-04T15:33:33.182Z,35.96
2023-03-04T15:36:02.050Z,35.23
2023-03-04T15:38:29.509Z,35.63
2023-03-04T15:40:59.735Z,35.24
2023-03-04T15:43:27.250Z,35.51
2023-03-04T15:45:54.363Z,35.19
2023-03-04T15:48:21.462Z,35.81
2023-03-04T15:50:56.770Z,35.51
2023-03-04T15:53:34.243Z,35.90
2023-03-04T15:56:02.236Z,35.60
2023-03-04T15:58:30.288Z,35.58
2023-03-04T16:00:57.168Z,35.34
2023-03-04T16:03:24.217Z,35.33
2023-03-04T16:05:52.838Z,36.02
2023-03-04T16:08:21.767Z,35.00
2023-03-04T16:10:49.020Z,35.30
2023-03-04T16:13:18.752Z,35.04
2023-03-04T16:15:46.040Z,35.13
2023-03-04T16:18:14.160Z,35.80
2023-03-04T16:20:43.654Z,35.81
2023-03-04T16:23:19.490Z,35.92
2023-03-04T16:25:47.919Z,35.72
2023-03-04T16:28:14.798Z,36.11
2023-03-04T16:30:41.938Z,35.57
2023-03-04T16:33:08.839Z,35.62
2023-03-04T16:35:37.344Z,35.66
2023-03-04T16:38:06.612Z,36.65
2023-03-04T16:40:33.609Z,37.89
2023-03-04T16:43:00.491Z,38.03
2023-03-04T16:45:30.463Z,38.63
2023-03-04T16:47:57.346Z,37.78
2023-03-04T16:50:27.544Z,37.45
2023-03-04T16:52:55.221Z,38.35
2023-03-04T16:55:25.597Z,37.00
2023-03-04T16:57:53.192Z,37.99
2023-03-04T17:00:21.692Z,37.51
2023-03-04T17:02:56.287Z,38.15
2023-03-04T17:05:25.945Z,38.28
2023-03-04T17:07:52.815Z,37.90
2023-03-04T17:10:20.534Z,37.72
2023-03-04T17:12:47.564Z,38.32
2023-03-04T17:15:15.055Z,39.00
2023-03-04T17:17:43.212Z,38.81
2023-03-04T17:20:12.975Z,39.67
2023-03-04T17:22:40.083Z,39.55
2023-03-04T17:25:07.619Z,39.75
2023-03-04T17:27:34.510Z,40.02
2023-03-04T17:30:01.464Z,40.07
2023-03-04T17:32:28.705Z,40.95
2023-03-04T17:34:58.423Z,40.28
2023-03-04T17:37:25.583Z,41.19
2023-03-04T17:39:52.440Z,40.75
2023-03-04T17:42:19.294Z,42.13
2023-03-04T17:44:46.259Z,43.60
2023-03-04T17:47:13.424Z,43.63
2023-03-04T17:49:40.308Z,44.71
2023-03-04T17:52:07.306Z,45.42
2023-03-04T17:54:36.169Z,46.16
2023-03-04T17:57:03.071Z,47.93
2023-03-04T17:59:29.909Z,47.14
2023-03-04T18:01:56.648Z,47.75
2023-03-04T18:04:23.521Z,46.87
2023-03-04T18:06:50.205Z,46.71
2023-03-04T18:09:17.070Z,46.76
2023-03-04T18:11:43.844Z,46.89
2023-03-04T18:14:12.953Z,46.31
2023-03-04T18:16:40.359Z,45.96
2023-03-04T18:19:09.519Z,47.33
2023-03-04T18:21:36.948Z,47.96
2023-03-04T18:24:04.203Z,47.64
2023-03-04T18:26:31.122Z,46.68
2023-03-04T18:28:58.051Z,47.46
2023-03-04T18:31:30.275Z,46.93
2023-03-04T18:34:00.808Z,47.28
2023-03-04T18:36:27.871Z,48.99
2023-03-04T18:38:55.195Z,48.92
2023-03-04T18:41:22.041Z,49.00
2023-03-04T18:43:48.729Z,48.97
2023-03-04T18:46:18.365Z,50.37
2023-03-04T18:48:53.137Z,50.47
2023-03-04T18:51:20.811Z,51.32
2023-03-04T18:53:48.024Z,51.89
2023-03-04T18:56:39.254Z,51.47
2023-03-04T18:59:16.812Z,51.31
2023-03-04T19:01:44.048Z,52.34
2023-03-04T19:04:11.484Z,52.25
2023-03-04T19:06:38.597Z,51.83
2023-03-04T19:09:06.761Z,51.95
2023-03-04T19:11:33.662Z,51.93
2023-03-04T19:14:00.536Z,52.79
2023-03-04T19:16:27.485Z,53.24
2023-03-04T19:18:54.422Z,53.55
2023-03-04T19:21:21.408Z,52.90
2023-03-04T19:23:48.275Z,55.62
2023-03-04T19:26:15.678Z,55.90
2023-03-04T19:28:42.905Z,56.53
2023-03-04T19:31:11.342Z,57.90
2023-03-04T19:33:39.421Z,58.10
2023-03-04T19:36:07.137Z,57.82
2023-03-04T19:38:34.466Z,57.57
2023-03-04T19:41:12.223Z,58.23
2023-03-04T19:43:39.689Z,56.97
2023-03-04T19:46:07.827Z,57.83
2023-03-04T19:48:36.419Z,59.13
2023-03-04T19:51:06.715Z,58.87
2023-03-04T19:53:34.854Z,59.54
2023-03-04T19:56:01.902Z,58.88
2023-03-04T19:58:28.748Z,58.03
2023-03-04T20:00:56.329Z,59.55
2023-03-04T20:03:24.294Z,59.03
2023-03-04T20:05:51.235Z,59.18
2023-03-04T20:08:18.891Z,59.40
2023-03-04T20:10:45.904Z,59.42
2023-03-04T20:13:12.783Z,58.61
2023-03-04T20:15:42.969Z,58.75
2023-03-04T20:18:09.933Z,59.27
2023-03-04T20:20:39.128Z,59.79
2023-03-04T20:23:06.301Z,60.22
2023-03-04T20:25:33.186Z,62.10
2023-03-04T20:28:00.153Z,62.95
2023-03-04T20:30:27.045Z,65.10
2023-03-04T20:32:53.996Z,65.36
2023-03-04T20:35:20.965Z,65.63
2023-03-04T20:37:47.915Z,67.32
2023-03-04T20:40:14.781Z,65.95
2023-03-04T20:42:41.808Z,66.93
2023-03-04T20:45:09.040Z,67.80
2023-03-04T20:47:37.972Z,67.99
2023-03-04T20:50:06.721Z,67.66
2023-03-04T20:52:33.641Z,67.62
2023-03-04T20:55:00.525Z,68.60
2023-03-04T20:57:27.490Z,68.89
2023-03-04T20:59:54.354Z,69.26
2023-03-04T21:02:23.556Z,70.82
2023-03-04T21:04:50.494Z,70.74
2023-03-04T21:07:17.863Z,70.02
2023-03-04T21:09:45.290Z,70.99
2023-03-04T21:12:12.170Z,70.41
2023-03-04T21:14:39.876Z,70.75
2023-03-04T21:17:06.816Z,71.15
2023-03-04T21:19:36.614Z,70.37
2023-03-04T21:22:04.441Z,70.09
2023-03-04T21:24:33.425Z,68.78
2023-03-04T21:27:01.711Z,70.82
2023-03-04T21:29:28.730Z,70.50
2023-03-04T21:32:13.072Z,71.63
2023-03-04T21:34:52.397Z,69.94
2023-03-04T21:37:20.658Z,70.05
2023-03-04T21:39:47.690Z,70.99
2023-03-04T21:42:14.594Z,71.28
2023-03-04T21:44:50.556Z,71.28
2023-03-04T21:47:19.256Z,71.32
2023-03-04T21:49:46.582Z,73.04
2023-03-04T21:52:13.486Z,71.67
2023-03-04T21:54:40.406Z,71.87
2023-03-04T21:57:07.336Z,71.10
2023-03-04T21:59:34.251Z,71.71
2023-03-04T22:02:01.833Z,71.58
2023-03-04T22:04:28.755Z,70.20
2023-03-04T22:06:55.600Z,70.65
2023-03-04T22:09:22.577Z,68.67
2023-03-04T22:11:49.443Z,68.61
2023-03-04T22:14:16.357Z,68.16
2023-03-04T22:16:59.025Z,68.23
2023-03-04T22:19:28.441Z,67.11
2023-03-04T22:21:55.380Z,65.70
2023-03-04T22:24:22.515Z,64.15
2023-03-04T22:26:49.438Z,64.29
2023-03-04T22:29:16.343Z,63.67
2023-03-04T22:31:43.236Z,64.05
2023-03-04T22:34:12.914Z,63.41
2023-03-04T22:36:41.832Z,62.86
2023-03-04T22:39:10.893Z,63.05
2023-03-04T22:41:38.236Z,63.15
2023-03-04T22:44:08.915Z,63.36
2023-03-04T22:46:38.404Z,64.22
2023-03-04T22:49:09.645Z,64.63
2023-03-04T22:51:37.913Z,65.29
2023-03-04T22:54:04.882Z,65.43
2023-03-04T22:56:31.832Z,64.53
2023-03-04T22:58:58.897Z,64.08
2023-03-04T23:01:25.786Z,64.32
2023-03-04T23:03:53.217Z,64.58
2023-03-04T23:06:22.992Z,63.07
2023-03-04T23:08:51.033Z,63.10
2023-03-04T23:11:21.292Z,63.02
2023-03-04T23:13:49.284Z,61.53
2023-03-04T23:16:16.612Z,61.24
2023-03-04T23:18:46.675Z,61.03
2023-03-04T23:21:16.478Z,60.56
2023-03-04T23:23:43.388Z,59.79
2023-03-04T23:26:26.193Z,59.70
2023-03-04T23:28:55.825Z,59.80
2023-03-04T23:31:23.208Z,60.50
2023-03-04T23:33:50.265Z,60.59
2023-03-04T23:36:18.875Z,61.58
2023-03-04T23:38:47.696Z,62.60
2023-03-04T23:41:17.123Z,62.48
2023-03-04T23:43:45.370Z,62.94
2023-03-04T23:46:12.433Z,63.00
2023-03-04T23:48:40.808Z,63.03
2023-03-04T23:51:09.483Z,63.50
2023-03-04T23:53:39.098Z,63.62
2023-03-04T23:56:13.202Z,64.93
2023-03-04T23:58:40.967Z,63.80
